createdAt,value
2019-05-10T00:02:06.772Z,99.90
2019-05-10T00:04:46.465Z,99.90
2019-05-10T00:07:26.034Z,99.90
2019-05-10T00:09:47.157Z,99.90
2019-05-10T00:14:54.472Z,99.90
2019-05-10T00:17:17.061Z,99.90
2019-05-10T00:19:38.266Z,99.90
2019-05-10T00:22:23.045Z,99.90
2019-05-10T00:25:00.884Z,99.90
2019-05-10T00:27:08.525Z,99.90
2019-05-10T00:29:29.812Z,99.90
2019-05-10T00:31:51.031Z,99.90
2019-05-10T00:34:12.329Z,99.90
2019-05-10T00:36:33.534Z,99.90
2019-05-10T00:38:55.224Z,99.90
2019-05-10T00:41:16.423Z,99.90
2019-05-10T00:43:37.602Z,99.90
2019-05-10T00:45:58.808Z,99.90
2019-05-10T00:48:20.012Z,99.90
2019-05-10T00:50:41.305Z,99.90
2019-05-10T00:53:22.375Z,99.90
2019-05-10T00:55:43.851Z,99.90
2019-05-10T00:58:05.038Z,99.90
2019-05-10T01:00:26.230Z,99.90
2019-05-10T01:02:47.437Z,99.90
2019-05-10T01:05:08.741Z,99.90
2019-05-10T01:07:29.920Z,99.90
2019-05-10T01:09:51.106Z,99.90
2019-05-10T01:12:12.300Z,99.90
2019-05-10T01:14:33.602Z,99.90
2019-05-10T01:16:54.802Z,99.90
2019-05-10T01:19:15.993Z,99.90
2019-05-10T01:21:37.201Z,99.90
2019-05-10T01:23:58.402Z,99.90
2019-05-10T01:26:19.598Z,99.90
2019-05-10T01:28:40.974Z,99.90
2019-05-10T01:31:02.182Z,99.90
2019-05-10T01:33:23.377Z,99.90
2019-05-10T01:35:44.591Z,99.90
2019-05-10T01:38:05.821Z,99.90
2019-05-10T01:40:27.110Z,99.90
2019-05-10T01:42:49.480Z,99.90
2019-05-10T01:45:11.186Z,99.90
2019-05-10T01:47:32.393Z,99.90
2019-05-10T01:49:53.592Z,99.90
2019-05-10T01:52:14.817Z,99.90
2019-05-10T01:54:36.112Z,99.90
2019-05-10T01:56:57.313Z,99.90
2019-05-10T01:59:18.481Z,99.90
2019-05-10T02:01:39.779Z,99.90
2019-05-10T02:04:00.981Z,99.90
2019-05-10T02:06:22.182Z,99.90
2019-05-10T02:08:43.466Z,99.90
2019-05-10T02:11:04.759Z,99.90
2019-05-10T02:13:25.975Z,99.90
2019-05-10T02:15:47.228Z,99.90
2019-05-10T02:18:08.519Z,99.90
2019-05-10T02:20:29.704Z,99.90
2019-05-10T02:22:50.921Z,99.90
2019-05-10T02:25:12.426Z,99.90
2019-05-10T02:27:33.898Z,99.90
2019-05-10T02:29:55.073Z,99.90
2019-05-10T02:32:16.470Z,99.90
2019-05-10T02:34:37.663Z,99.90
2019-05-10T02:37:00.041Z,99.90
2019-05-10T02:39:21.355Z,99.90
2019-05-10T02:41:42.562Z,99.90
2019-05-10T02:44:03.974Z,99.90
2019-05-10T02:46:25.515Z,99.90
2019-05-10T02:48:46.877Z,99.90
2019-05-10T02:51:08.365Z,99.90
2019-05-10T02:53:29.632Z,99.90
2019-05-10T02:55:50.829Z,99.90
2019-05-10T02:58:15.324Z,99.90
2019-05-10T03:00:39.691Z,99.90
2019-05-10T03:03:04.221Z,99.90
2019-05-10T03:05:26.020Z,99.90
2019-05-10T03:07:49.227Z,99.90
2019-05-10T03:10:11.419Z,99.90
2019-05-10T03:12:36.103Z,99.90
2019-05-10T03:14:57.872Z,99.90
2019-05-10T03:17:19.113Z,99.90
2019-05-10T03:19:40.751Z,99.90
2019-05-10T03:22:05.044Z,99.90
2019-05-10T03:24:28.028Z,99.90
2019-05-10T03:26:51.383Z,99.90
2019-05-10T03:29:12.447Z,99.90
2019-05-10T03:31:33.652Z,99.90
2019-05-10T03:33:57.601Z,99.90
2019-05-10T03:36:19.809Z,99.90
2019-05-10T03:38:41.224Z,99.90
2019-05-10T03:41:02.594Z,99.90
2019-05-10T03:43:23.820Z,99.90
2019-05-10T03:45:45.406Z,99.90
2019-05-10T03:48:06.626Z,99.90
2019-05-10T03:50:28.044Z,99.90
2019-05-10T03:52:52.242Z,99.90
2019-05-10T03:55:12.330Z,99.90
2019-05-10T03:57:33.513Z,99.90
2019-05-10T03:59:54.703Z,99.90
2019-05-10T04:02:16.142Z,99.90
2019-05-10T04:04:37.349Z,99.90
2019-05-10T04:06:58.793Z,99.90
2019-05-10T04:09:20.099Z,99.90
2019-05-10T04:11:41.300Z,99.90
2019-05-10T04:14:03.314Z,99.90
2019-05-10T04:16:24.529Z,99.90
2019-05-10T04:18:45.747Z,99.90
2019-05-10T04:21:06.943Z,99.90
2019-05-10T04:23:28.139Z,99.90
2019-05-10T04:25:49.362Z,99.90
2019-05-10T04:28:10.639Z,99.90
2019-05-10T04:30:32.045Z,99.90
2019-05-10T04:32:53.637Z,99.90
2019-05-10T04:35:14.926Z,99.90
2019-05-10T04:37:36.116Z,99.90
2019-05-10T04:39:58.561Z,99.90
2019-05-10T04:42:20.299Z,99.90
2019-05-10T04:44:41.602Z,99.90
2019-05-10T04:47:02.800Z,99.90
2019-05-10T04:49:24.256Z,99.90
2019-05-10T04:51:45.856Z,99.90
2019-05-10T04:57:54.366Z,99.90
2019-05-10T05:03:34.224Z,99.90
2019-05-10T05:09:26.074Z,99.90
2019-05-10T05:15:06.607Z,99.90
2019-05-10T05:17:27.839Z,99.90
2019-05-10T05:19:49.024Z,99.90
2019-05-10T05:22:10.292Z,99.90
2019-05-10T05:24:31.578Z,99.90
2019-05-10T05:30:23.037Z,99.90
2019-05-10T05:32:45.777Z,99.90
2019-05-10T05:35:07.553Z,99.90
2019-05-10T05:37:28.756Z,99.90
2019-05-10T05:39:49.939Z,99.90
2019-05-10T05:42:11.132Z,99.90
2019-05-10T05:44:32.323Z,99.90
2019-05-10T05:46:53.538Z,99.90
2019-05-10T05:49:14.727Z,99.90
2019-05-10T05:51:35.929Z,99.90
2019-05-10T05:53:57.145Z,99.90
2019-05-10T05:56:18.440Z,99.90
2019-05-10T05:58:44.599Z,99.90
2019-05-10T06:01:03.289Z,99.90
2019-05-10T06:03:29.519Z,99.90
2019-05-10T06:05:47.711Z,99.90
2019-05-10T06:08:21.571Z,99.90
2019-05-10T06:10:32.026Z,99.90
2019-05-10T06:12:53.234Z,99.90
2019-05-10T06:15:14.539Z,99.90
2019-05-10T06:17:35.825Z,99.90
2019-05-10T06:20:01.008Z,99.90
2019-05-10T06:22:20.114Z,99.90
2019-05-10T06:24:41.323Z,99.90
2019-05-10T06:27:03.386Z,99.90
2019-05-10T06:29:25.719Z,99.90
2019-05-10T06:31:46.906Z,99.90
2019-05-10T06:34:08.123Z,99.90
2019-05-10T06:36:29.335Z,99.90
2019-05-10T06:38:50.537Z,99.90
2019-05-10T06:41:16.619Z,99.90
2019-05-10T06:43:34.836Z,99.90
2019-05-10T06:45:56.164Z,99.90
2019-05-10T06:48:25.851Z,99.90
2019-05-10T06:50:40.487Z,99.90
2019-05-10T06:53:07.799Z,99.90
2019-05-10T06:55:24.863Z,99.90
2019-05-10T06:57:50.421Z,99.90
2019-05-10T07:00:09.465Z,99.90
2019-05-10T07:02:32.459Z,99.90
2019-05-10T07:04:53.787Z,99.90
2019-05-10T07:07:22.222Z,99.90
2019-05-10T07:10:01.219Z,99.90
2019-05-10T07:12:01.691Z,99.90
2019-05-10T07:14:25.601Z,99.90
2019-05-10T07:16:46.020Z,99.90
2019-05-10T07:19:07.242Z,99.90
2019-05-10T07:21:28.449Z,99.90
2019-05-10T07:23:50.494Z,99.90
2019-05-10T07:26:16.991Z,99.90
2019-05-10T07:28:35.058Z,98.30
2019-05-10T07:30:56.666Z,99.20
2019-05-10T07:33:17.933Z,98.70
2019-05-10T07:35:39.130Z,98.80
2019-05-10T07:38:00.333Z,98.20
2019-05-10T07:40:21.535Z,97.10
2019-05-10T07:42:45.470Z,98.60
2019-05-10T07:45:06.410Z,96.90
2019-05-10T07:47:30.875Z,95.00
2019-05-10T07:49:50.766Z,95.60
2019-05-10T07:52:12.157Z,96.00
2019-05-10T07:54:37.409Z,94.80
2019-05-10T07:56:56.748Z,92.60
2019-05-10T07:59:22.002Z,91.50
2019-05-10T08:01:41.331Z,90.60
2019-05-10T08:04:02.533Z,90.80
2019-05-10T08:06:23.819Z,91.10
2019-05-10T08:08:45.195Z,91.30
2019-05-10T08:11:08.405Z,90.90
2019-05-10T08:13:29.503Z,90.40
2019-05-10T08:15:50.700Z,90.50
2019-05-10T08:18:15.329Z,90.60
2019-05-10T08:20:46.606Z,91.40
2019-05-10T08:22:59.391Z,92.20
2019-05-10T08:25:23.071Z,91.70
2019-05-10T08:27:57.316Z,91.80
2019-05-10T08:30:33.213Z,92.40
2019-05-10T08:32:54.705Z,92.50
2019-05-10T08:35:18.599Z,91.00
2019-05-10T08:37:39.191Z,91.50
2019-05-10T08:40:02.999Z,90.10
2019-05-10T08:42:37.711Z,90.20
2019-05-10T08:44:54.204Z,90.50
2019-05-10T08:47:15.756Z,91.20
2019-05-10T08:49:43.809Z,91.10
2019-05-10T08:51:58.254Z,90.60
2019-05-10T08:54:22.144Z,90.70
2019-05-10T08:59:26.157Z,95.30
2019-05-10T09:01:50.722Z,96.40
2019-05-10T09:04:10.957Z,96.20
2019-05-10T09:06:32.831Z,95.80
2019-05-10T09:09:01.826Z,95.20
2019-05-10T09:11:17.582Z,94.70
2019-05-10T09:13:42.444Z,94.60
2019-05-10T09:16:02.433Z,94.90
2019-05-10T09:18:24.026Z,95.20
2019-05-10T09:20:45.359Z,95.70
2019-05-10T09:23:08.681Z,96.00
2019-05-10T09:25:31.615Z,95.80
2019-05-10T09:27:53.230Z,96.80
2019-05-10T09:30:18.687Z,97.50
2019-05-10T09:32:40.146Z,97.20
2019-05-10T09:35:07.621Z,97.50
2019-05-10T09:37:25.530Z,97.90
2019-05-10T09:39:46.954Z,98.80
2019-05-10T09:42:10.923Z,98.60
2019-05-10T09:44:32.982Z,98.20
2019-05-10T09:46:54.381Z,97.70
2019-05-10T09:49:18.413Z,97.00
2019-05-10T09:51:38.699Z,95.70
2019-05-10T09:54:00.321Z,93.70
2019-05-10T09:56:22.102Z,92.40
2019-05-10T09:58:43.307Z,89.20
2019-05-10T10:01:17.040Z,90.80
2019-05-10T10:03:30.078Z,90.00
2019-05-10T10:05:55.069Z,89.80
2019-05-10T10:08:15.065Z,88.50
2019-05-10T10:10:37.158Z,84.50
2019-05-10T10:13:08.414Z,81.80
2019-05-10T10:15:29.852Z,82.90
2019-05-10T10:17:44.968Z,83.10
2019-05-10T10:20:08.414Z,83.50
2019-05-10T10:22:29.926Z,80.50
2019-05-10T10:24:55.002Z,75.20
2019-05-10T10:27:14.305Z,72.80
2019-05-10T10:29:38.273Z,74.50
2019-05-10T10:31:59.103Z,76.90
2019-05-10T10:34:20.438Z,76.20
2019-05-10T10:36:43.937Z,74.60
2019-05-10T10:39:22.792Z,71.20
2019-05-10T10:41:41.209Z,71.60
2019-05-10T10:44:03.516Z,74.20
2019-05-10T10:46:24.830Z,74.90
2019-05-10T10:48:49.100Z,75.90
2019-05-10T10:51:09.144Z,71.70
2019-05-10T10:53:30.345Z,68.40
2019-05-10T10:55:54.406Z,66.40
2019-05-10T10:58:14.779Z,66.50
2019-05-10T11:00:38.785Z,65.30
2019-05-10T11:03:00.986Z,68.00
2019-05-10T11:05:23.558Z,72.60
2019-05-10T11:07:47.709Z,72.80
2019-05-10T11:10:16.151Z,72.90
2019-05-10T11:12:31.655Z,74.60
2019-05-10T11:14:52.840Z,76.00
2019-05-10T11:17:14.065Z,75.00
2019-05-10T11:19:35.286Z,75.10
2019-05-10T11:21:56.501Z,72.00
2019-05-10T11:24:20.133Z,73.10
2019-05-10T11:26:44.365Z,73.00
2019-05-10T11:29:04.134Z,71.60
2019-05-10T11:31:25.454Z,75.60
2019-05-10T11:33:47.173Z,79.50
2019-05-10T11:36:11.482Z,83.10
2019-05-10T11:38:33.126Z,90.80
2019-05-10T11:40:54.590Z,94.10
2019-05-10T11:43:17.285Z,96.20
2019-05-10T11:45:41.939Z,97.00
2019-05-10T11:48:03.759Z,99.20
2019-05-10T11:50:34.926Z,97.60
2019-05-10T11:52:52.761Z,95.80
2019-05-10T11:55:14.109Z,97.20
2019-05-10T11:57:35.609Z,96.80
2019-05-10T11:59:57.479Z,96.90
2019-05-10T12:04:43.377Z,97.10
2019-05-10T12:07:08.446Z,96.80
2019-05-10T12:09:31.446Z,96.40
2019-05-10T12:11:53.070Z,96.20
2019-05-10T12:14:15.524Z,96.20
2019-05-10T12:16:42.038Z,95.90
2019-05-10T12:19:14.987Z,95.30
2019-05-10T12:21:27.402Z,94.70
2019-05-10T12:23:52.022Z,92.20
2019-05-10T12:26:15.570Z,96.80
2019-05-10T12:28:35.709Z,89.90
2019-05-10T12:31:21.115Z,89.50
2019-05-10T12:33:45.326Z,89.70
2019-05-10T12:36:13.469Z,91.20
2019-05-10T12:38:31.606Z,89.20
2019-05-10T12:40:52.128Z,89.00
2019-05-10T12:43:13.409Z,86.20
2019-05-10T12:45:34.788Z,80.10
2019-05-10T12:47:56.291Z,80.30
2019-05-10T12:50:18.008Z,77.80
2019-05-10T12:52:42.979Z,78.40
2019-05-10T12:55:05.423Z,75.40
2019-05-10T12:57:26.631Z,76.20
2019-05-10T12:59:48.298Z,76.90
2019-05-10T13:02:11.005Z,77.10
2019-05-10T13:04:40.504Z,77.80
2019-05-10T13:06:56.258Z,75.20
2019-05-10T13:09:17.515Z,73.40
2019-05-10T13:11:39.302Z,67.90
2019-05-10T13:14:07.243Z,68.10
2019-05-10T13:16:26.457Z,65.70
2019-05-10T13:18:51.766Z,63.70
2019-05-10T13:21:20.766Z,61.30
2019-05-10T13:23:37.394Z,67.00
2019-05-10T13:25:58.941Z,63.90
2019-05-10T13:28:20.640Z,59.20
2019-05-10T13:30:42.008Z,62.20
2019-05-10T13:33:03.909Z,58.80
2019-05-10T13:35:38.830Z,59.50
2019-05-10T13:38:04.023Z,60.80
2019-05-10T13:40:23.754Z,59.40
2019-05-10T13:42:46.005Z,56.70
2019-05-10T13:45:09.174Z,54.20
2019-05-10T13:47:31.395Z,56.60
2019-05-10T13:49:53.153Z,57.10
2019-05-10T13:52:14.681Z,59.00
2019-05-10T13:54:37.630Z,55.80
2019-05-10T13:56:59.360Z,57.60
2019-05-10T13:59:21.354Z,56.90
2019-05-10T14:01:44.103Z,56.80
2019-05-10T14:04:06.171Z,55.70
2019-05-10T14:06:27.371Z,57.50
2019-05-10T14:08:50.496Z,57.20
2019-05-10T14:11:11.910Z,58.40
2019-05-10T14:13:35.577Z,58.30
2019-05-10T14:15:56.313Z,58.30
2019-05-10T14:18:18.051Z,60.50
2019-05-10T14:20:39.847Z,56.80
2019-05-10T14:23:01.305Z,57.60
2019-05-10T14:25:23.428Z,55.40
2019-05-10T14:27:44.934Z,55.10
2019-05-10T14:30:12.922Z,55.20
2019-05-10T14:32:30.232Z,52.70
2019-05-10T14:34:51.453Z,52.20
2019-05-10T14:37:14.327Z,54.00
2019-05-10T14:39:36.030Z,54.60
2019-05-10T14:41:57.995Z,52.60
2019-05-10T14:44:19.415Z,53.10
2019-05-10T14:46:40.690Z,52.80
2019-05-10T14:49:08.711Z,54.20
2019-05-10T14:51:40.339Z,54.10
2019-05-10T14:53:48.352Z,54.80
2019-05-10T14:56:14.137Z,55.60
2019-05-10T14:58:33.743Z,53.40
2019-05-10T15:00:54.985Z,51.80
2019-05-10T15:03:16.172Z,51.00
2019-05-10T15:05:37.383Z,51.50
2019-05-10T15:07:58.871Z,51.60
2019-05-10T15:10:21.302Z,50.60
2019-05-10T15:12:42.573Z,51.90
2019-05-10T15:15:05.484Z,54.00
2019-05-10T15:17:30.060Z,53.40
2019-05-10T15:19:57.979Z,53.80
2019-05-10T15:22:18.342Z,53.90
2019-05-10T15:24:36.235Z,53.10
2019-05-10T15:26:57.434Z,54.80
2019-05-10T15:29:22.695Z,54.60
2019-05-10T15:31:42.040Z,52.00
2019-05-10T15:34:05.130Z,53.90
2019-05-10T15:36:29.471Z,51.20
2019-05-10T15:38:52.285Z,52.90
2019-05-10T15:41:17.036Z,52.70
2019-05-10T15:43:37.189Z,51.50
2019-05-10T15:45:58.659Z,49.80
2019-05-10T15:48:20.185Z,49.70
2019-05-10T15:50:41.425Z,48.50
2019-05-10T15:53:03.137Z,49.50
2019-05-10T15:55:27.380Z,50.10
2019-05-10T15:57:51.684Z,50.50
2019-05-10T16:00:12.890Z,52.00
2019-05-10T16:02:34.652Z,49.80
2019-05-10T16:04:56.724Z,51.00
2019-05-10T16:07:17.915Z,49.60
2019-05-10T16:09:39.124Z,50.60
2019-05-10T16:12:02.347Z,51.50
2019-05-10T16:14:23.851Z,49.10
2019-05-10T16:16:45.073Z,48.00
2019-05-10T16:19:07.586Z,49.90
2019-05-10T16:21:28.923Z,51.40
2019-05-10T16:23:50.390Z,52.50
2019-05-10T16:26:11.657Z,53.40
2019-05-10T16:28:32.866Z,53.20
2019-05-10T16:30:54.402Z,54.60
2019-05-10T16:33:18.039Z,54.60
2019-05-10T16:35:39.315Z,54.60
2019-05-10T16:38:00.699Z,55.30
2019-05-10T16:40:21.990Z,55.80
2019-05-10T16:42:43.387Z,55.90
2019-05-10T16:45:05.993Z,55.80
2019-05-10T16:47:27.240Z,54.10
2019-05-10T16:49:53.290Z,53.90
2019-05-10T16:52:12.147Z,54.40
2019-05-10T16:54:33.621Z,55.90
2019-05-10T16:56:59.386Z,57.00
2019-05-10T16:59:18.401Z,56.50
2019-05-10T17:01:39.617Z,57.20
2019-05-10T17:04:01.867Z,57.50
2019-05-10T17:06:23.442Z,57.70
2019-05-10T17:08:44.871Z,58.90
2019-05-10T17:11:10.167Z,60.00
2019-05-10T17:13:29.635Z,59.90
2019-05-10T17:15:50.827Z,60.20
2019-05-10T17:18:17.607Z,61.20
2019-05-10T17:20:35.128Z,61.00
2019-05-10T17:23:08.173Z,64.70
2019-05-10T17:25:22.516Z,64.20
2019-05-10T17:27:42.982Z,66.90
2019-05-10T17:30:04.761Z,66.60
2019-05-10T17:32:26.736Z,67.00
2019-05-10T17:34:49.174Z,67.00
2019-05-10T17:37:10.385Z,67.80
2019-05-10T17:39:34.012Z,67.20
2019-05-10T17:41:57.690Z,68.20
2019-05-10T17:44:23.121Z,67.60
2019-05-10T17:46:43.144Z,68.00
2019-05-10T17:49:04.431Z,68.30
2019-05-10T17:51:25.615Z,68.10
2019-05-10T17:53:46.825Z,69.10
2019-05-10T17:56:12.667Z,70.00
2019-05-10T17:58:35.038Z,71.80
2019-05-10T18:00:56.622Z,73.20
2019-05-10T18:03:17.826Z,73.50
2019-05-10T18:05:41.298Z,74.10
2019-05-10T18:08:02.579Z,75.90
2019-05-10T18:10:23.870Z,76.10
2019-05-10T18:12:45.077Z,76.90
2019-05-10T18:15:08.220Z,78.10
2019-05-10T18:17:29.495Z,78.30
2019-05-10T18:19:50.771Z,78.60
2019-05-10T18:22:12.002Z,79.00
2019-05-10T18:24:36.320Z,80.40
2019-05-10T18:26:56.498Z,81.10
2019-05-10T18:29:17.703Z,82.10
2019-05-10T18:31:38.898Z,82.60
2019-05-10T18:34:00.175Z,82.60
2019-05-10T18:36:24.792Z,82.50
2019-05-10T18:38:45.115Z,83.10
2019-05-10T18:41:10.109Z,83.60
2019-05-10T18:43:35.295Z,84.50
2019-05-10T18:46:01.212Z,86.00
2019-05-10T18:48:24.382Z,87.60
2019-05-10T18:50:47.308Z,88.40
2019-05-10T18:53:09.572Z,90.20
2019-05-10T18:55:31.493Z,90.30
2019-05-10T18:57:52.871Z,91.00
2019-05-10T19:00:17.631Z,91.20
2019-05-10T19:02:38.736Z,91.30
2019-05-10T19:05:00.369Z,91.50
2019-05-10T19:07:21.653Z,92.50
2019-05-10T19:09:44.059Z,93.10
2019-05-10T19:12:05.340Z,93.30
2019-05-10T19:14:39.602Z,93.90
2019-05-10T19:17:03.751Z,94.40
2019-05-10T19:19:23.914Z,94.70
2019-05-10T19:21:45.097Z,95.30
2019-05-10T19:24:06.771Z,95.50
2019-05-10T19:26:29.465Z,95.60
2019-05-10T19:28:52.401Z,95.80
2019-05-10T19:31:13.618Z,96.00
2019-05-10T19:33:37.812Z,96.70
2019-05-10T19:36:00.328Z,97.20
2019-05-10T19:38:21.536Z,97.60
2019-05-10T19:40:45.934Z,98.00
2019-05-10T19:43:07.247Z,97.60
2019-05-10T19:45:31.100Z,97.90
2019-05-10T19:47:55.647Z,98.30
2019-05-10T19:50:15.159Z,98.60
2019-05-10T19:52:36.365Z,98.80
2019-05-10T19:54:57.593Z,98.70
2019-05-10T19:57:19.037Z,99.00
2019-05-10T19:59:43.887Z,99.30
2019-05-10T20:02:04.592Z,99.40
2019-05-10T20:04:25.785Z,99.30
2019-05-10T20:06:46.998Z,99.60
2019-05-10T20:09:08.235Z,99.90
2019-05-10T20:11:29.519Z,99.90
2019-05-10T20:13:50.717Z,99.90
2019-05-10T20:16:12.214Z,99.90
2019-05-10T20:18:33.452Z,99.90
2019-05-10T20:20:54.672Z,99.90
2019-05-10T20:23:15.869Z,99.90
2019-05-10T20:25:37.086Z,99.90
2019-05-10T20:27:58.362Z,99.90
2019-05-10T20:30:19.686Z,99.90
2019-05-10T20:32:40.876Z,99.90
2019-05-10T20:35:04.608Z,99.90
2019-05-10T20:37:25.882Z,99.90
2019-05-10T20:40:01.645Z,99.90
2019-05-10T20:42:22.905Z,99.90
2019-05-10T20:44:44.094Z,99.90
2019-05-10T20:47:05.296Z,99.90
2019-05-10T20:49:26.542Z,99.90
2019-05-10T20:51:47.850Z,99.90
2019-05-10T20:54:09.153Z,99.90
2019-05-10T20:56:30.352Z,99.90
2019-05-10T20:58:51.536Z,99.90
2019-05-10T21:01:12.751Z,99.90
2019-05-10T21:03:33.957Z,99.90
2019-05-10T21:05:55.173Z,99.90
2019-05-10T21:08:17.406Z,99.90
2019-05-10T21:10:39.117Z,99.90
2019-05-10T21:13:01.414Z,99.90
2019-05-10T21:15:22.683Z,99.90
2019-05-10T21:17:43.879Z,99.90
2019-05-10T21:20:06.389Z,99.90
2019-05-10T21:22:27.579Z,99.90
2019-05-10T21:24:48.795Z,99.90
2019-05-10T21:27:09.996Z,99.90
2019-05-10T21:29:31.429Z,99.90
2019-05-10T21:31:52.642Z,99.90
2019-05-10T21:34:13.855Z,99.90
2019-05-10T21:36:36.184Z,99.90
2019-05-10T21:38:58.690Z,99.90
2019-05-10T21:41:19.894Z,99.90
2019-05-10T21:43:41.147Z,99.90
2019-05-10T21:46:02.431Z,99.90
2019-05-10T21:48:23.686Z,99.90
2019-05-10T21:50:45.097Z,99.90
2019-05-10T21:53:06.685Z,99.90
2019-05-10T21:55:27.901Z,99.90
2019-05-10T21:57:49.103Z,99.90
2019-05-10T22:00:13.010Z,99.90
2019-05-10T22:02:36.274Z,99.90
2019-05-10T22:04:57.604Z,99.90
2019-05-10T22:07:18.977Z,99.90
2019-05-10T22:09:40.613Z,99.90
2019-05-10T22:12:02.041Z,99.90
2019-05-10T22:14:23.385Z,99.90
2019-05-10T22:16:44.735Z,99.90
2019-05-10T22:19:06.183Z,99.90
2019-05-10T22:21:27.503Z,99.90
2019-05-10T22:23:48.853Z,99.90
2019-05-10T22:26:10.241Z,99.90
2019-05-10T22:28:31.546Z,99.90
2019-05-10T22:30:52.881Z,99.90
2019-05-10T22:33:14.257Z,99.90
2019-05-10T22:35:35.582Z,99.90
2019-05-10T22:37:57.041Z,99.90
2019-05-10T22:40:18.382Z,99.90
2019-05-10T22:42:39.763Z,99.90
2019-05-10T22:45:01.110Z,99.90
2019-05-10T22:47:25.369Z,99.90
2019-05-10T22:49:45.896Z,99.90
2019-05-10T22:52:07.235Z,99.90
2019-05-10T22:54:28.574Z,99.90
2019-05-10T22:56:49.927Z,99.90
2019-05-10T22:59:11.391Z,99.90
2019-05-10T23:01:32.745Z,99.90
2019-05-10T23:03:54.096Z,99.90
2019-05-10T23:06:15.446Z,99.90
2019-05-10T23:08:36.802Z,99.90
2019-05-10T23:10:59.074Z,99.90
2019-05-10T23:13:20.485Z,99.90
2019-05-10T23:15:41.765Z,99.90
2019-05-10T23:18:03.178Z,99.90
2019-05-10T23:20:24.613Z,99.90
2019-05-10T23:22:45.946Z,99.90
2019-05-10T23:25:07.757Z,99.90
2019-05-10T23:27:29.102Z,99.90
2019-05-10T23:29:50.418Z,99.90
2019-05-10T23:32:12.257Z,99.90
2019-05-10T23:34:33.596Z,99.90
2019-05-10T23:36:54.917Z,99.90
2019-05-10T23:39:38.349Z,99.90
2019-05-10T23:41:46.401Z,99.90
2019-05-10T23:44:07.853Z,99.90
2019-05-10T23:46:29.202Z,99.90
2019-05-10T23:48:50.551Z,99.90
2019-05-10T23:51:11.950Z,99.90
2019-05-10T23:53:33.618Z,99.90
2019-05-10T23:55:54.942Z,99.90
2019-05-10T23:58:16.278Z,99.90
